sensor_id;sensor_type;location;lat;lon;timestamp;temperature;humidity
35258;DHT22;21385;50.878;8.050;2024-01-30T00:02:16;4.50;99.90
35258;DHT22;21385;50.878;8.050;2024-01-30T00:04:41;4.50;99.90
35258;DHT22;21385;50.878;8.050;2024-01-30T00:07:07;4.50;99.90
35258;DHT22;21385;50.878;8.050;2024-01-30T00:09:33;4.60;99.90
35258;DHT22;21385;50.878;8.050;2024-01-30T00:11:58;4.50;99.90
35258;DHT22;21385;50.878;8.050;2024-01-30T00:14:24;4.50;99.90
35258;DHT22;21385;50.878;8.050;2024-01-30T00:16:51;4.50;99.90
35258;DHT22;21385;50.878;8.050;2024-01-30T00:19:17;4.50;99.90
35258;DHT22;21385;50.878;8.050;2024-01-30T00:21:42;4.50;99.90
35258;DHT22;21385;50.878;8.050;2024-01-30T00:24:08;4.50;99.90
35258;DHT22;21385;50.878;8.050;2024-01-30T00:26:34;4.60;99.90
35258;DHT22;21385;50.878;8.050;2024-01-30T00:29:00;4.60;99.90
35258;DHT22;21385;50.878;8.050;2024-01-30T00:31:25;4.60;99.90
35258;DHT22;21385;50.878;8.050;2024-01-30T00:33:51;4.50;99.90
35258;DHT22;21385;50.878;8.050;2024-01-30T00:36:17;4.50;99.90
35258;DHT22;21385;50.878;8.050;2024-01-30T00:38:42;4.40;99.90
35258;DHT22;21385;50.878;8.050;2024-01-30T00:41:08;4.40;99.90
35258;DHT22;21385;50.878;8.050;2024-01-30T00:43:35;4.30;99.90
35258;DHT22;21385;50.878;8.050;2024-01-30T00:46:00;4.30;99.90
35258;DHT22;21385;50.878;8.050;2024-01-30T00:48:26;4.30;99.90
35258;DHT22;21385;50.878;8.050;2024-01-30T00:50:52;4.20;99.90
35258;DHT22;21385;50.878;8.050;2024-01-30T00:53:17;4.20;99.90
35258;DHT22;21385;50.878;8.050;2024-01-30T00:55:43;4.20;99.90
35258;DHT22;21385;50.878;8.050;2024-01-30T00:58:09;4.10;99.90
35258;DHT22;21385;50.878;8.050;2024-01-30T01:00:34;4.10;99.90
35258;DHT22;21385;50.878;8.050;2024-01-30T01:03:00;4.10;99.90
35258;DHT22;21385;50.878;8.050;2024-01-30T01:05:25;4.10;99.90
35258;DHT22;21385;50.878;8.050;2024-01-30T01:07:51;4.00;99.90
35258;DHT22;21385;50.878;8.050;2024-01-30T01:10:17;4.10;99.90
35258;DHT22;21385;50.878;8.050;2024-01-30T01:12:43;4.00;99.90
35258;DHT22;21385;50.878;8.050;2024-01-30T01:15:09;4.00;99.90
35258;DHT22;21385;50.878;8.050;2024-01-30T01:17:36;4.00;99.90
35258;DHT22;21385;50.878;8.050;2024-01-30T01:20:03;4.00;99.90
35258;DHT22;21385;50.878;8.050;2024-01-30T01:22:29;4.00;99.90
35258;DHT22;21385;50.878;8.050;2024-01-30T01:24:54;4.00;99.90
35258;DHT22;21385;50.878;8.050;2024-01-30T01:27:20;4.00;99.90
35258;DHT22;21385;50.878;8.050;2024-01-30T01:29:46;4.00;99.90
35258;DHT22;21385;50.878;8.050;2024-01-30T01:32:12;4.00;99.90
35258;DHT22;21385;50.878;8.050;2024-01-30T01:34:37;4.00;99.90
35258;DHT22;21385;50.878;8.050;2024-01-30T01:37:03;3.90;99.90
35258;DHT22;21385;50.878;8.050;2024-01-30T01:39:29;3.90;99.90
35258;DHT22;21385;50.878;8.050;2024-01-30T01:41:55;3.90;99.90
35258;DHT22;21385;50.878;8.050;2024-01-30T01:44:20;3.90;99.90
35258;DHT22;21385;50.878;8.050;2024-01-30T01:46:46;3.80;99.90
35258;DHT22;21385;50.878;8.050;2024-01-30T01:49:13;3.80;99.90
35258;DHT22;21385;50.878;8.050;2024-01-30T01:51:40;3.80;99.90
35258;DHT22;21385;50.878;8.050;2024-01-30T01:54:07;3.80;99.90
35258;DHT22;21385;50.878;8.050;2024-01-30T01:56:34;3.70;99.90
35258;DHT22;21385;50.878;8.050;2024-01-30T01:59:04;3.70;99.90
35258;DHT22;21385;50.878;8.050;2024-01-30T02:01:32;3.70;99.90
35258;DHT22;21385;50.878;8.050;2024-01-30T02:03:59;3.70;99.90
35258;DHT22;21385;50.878;8.050;2024-01-30T02:06:24;3.70;99.90
35258;DHT22;21385;50.878;8.050;2024-01-30T02:08:50;3.70;99.90
35258;DHT22;21385;50.878;8.050;2024-01-30T02:11:16;3.80;99.90
35258;DHT22;21385;50.878;8.050;2024-01-30T02:13:42;3.70;99.90
35258;DHT22;21385;50.878;8.050;2024-01-30T02:16:08;3.80;99.90
35258;DHT22;21385;50.878;8.050;2024-01-30T02:18:33;3.80;99.90
35258;DHT22;21385;50.878;8.050;2024-01-30T02:21:03;3.80;99.90
35258;DHT22;21385;50.878;8.050;2024-01-30T02:23:30;3.80;99.90
35258;DHT22;21385;50.878;8.050;2024-01-30T02:25:56;3.80;99.90
35258;DHT22;21385;50.878;8.050;2024-01-30T02:28:22;3.80;99.90
35258;DHT22;21385;50.878;8.050;2024-01-30T02:30:47;3.80;99.90
35258;DHT22;21385;50.878;8.050;2024-01-30T02:33:13;3.80;99.90
35258;DHT22;21385;50.878;8.050;2024-01-30T02:35:39;3.90;99.90
35258;DHT22;21385;50.878;8.050;2024-01-30T02:38:05;3.90;99.90
35258;DHT22;21385;50.878;8.050;2024-01-30T02:40:31;3.90;99.90
35258;DHT22;21385;50.878;8.050;2024-01-30T02:42:58;3.90;99.90
35258;DHT22;21385;50.878;8.050;2024-01-30T02:45:24;3.90;99.90
35258;DHT22;21385;50.878;8.050;2024-01-30T02:47:50;3.90;99.90
35258;DHT22;21385;50.878;8.050;2024-01-30T02:50:15;3.80;99.90
35258;DHT22;21385;50.878;8.050;2024-01-30T02:52:42;3.70;99.90
35258;DHT22;21385;50.878;8.050;2024-01-30T02:55:09;3.70;99.90
35258;DHT22;21385;50.878;8.050;2024-01-30T02:57:35;3.70;99.90
35258;DHT22;21385;50.878;8.050;2024-01-30T03:00:01;3.80;99.90
35258;DHT22;21385;50.878;8.050;2024-01-30T03:02:27;3.80;99.90
35258;DHT22;21385;50.878;8.050;2024-01-30T03:04:52;3.80;99.90
35258;DHT22;21385;50.878;8.050;2024-01-30T03:07:18;3.70;99.90
35258;DHT22;21385;50.878;8.050;2024-01-30T03:09:44;3.70;99.90
35258;DHT22;21385;50.878;8.050;2024-01-30T03:12:10;3.70;99.90
35258;DHT22;21385;50.878;8.050;2024-01-30T03:14:35;3.70;99.90
35258;DHT22;21385;50.878;8.050;2024-01-30T03:17:01;3.60;99.90
35258;DHT22;21385;50.878;8.050;2024-01-30T03:19:27;3.60;99.90
35258;DHT22;21385;50.878;8.050;2024-01-30T03:21:52;3.60;99.90
35258;DHT22;21385;50.878;8.050;2024-01-30T03:24:18;3.60;99.90
35258;DHT22;21385;50.878;8.050;2024-01-30T03:26:44;3.50;99.90
35258;DHT22;21385;50.878;8.050;2024-01-30T03:29:10;3.50;99.90
35258;DHT22;21385;50.878;8.050;2024-01-30T03:31:35;3.40;99.90
35258;DHT22;21385;50.878;8.050;2024-01-30T03:34:01;3.40;99.90
35258;DHT22;21385;50.878;8.050;2024-01-30T03:36:27;3.30;99.90
35258;DHT22;21385;50.878;8.050;2024-01-30T03:38:53;3.30;99.90
35258;DHT22;21385;50.878;8.050;2024-01-30T03:41:19;3.30;99.90
35258;DHT22;21385;50.878;8.050;2024-01-30T03:43:44;3.30;99.90
35258;DHT22;21385;50.878;8.050;2024-01-30T03:46:12;3.20;99.90
35258;DHT22;21385;50.878;8.050;2024-01-30T03:48:37;3.20;99.90
35258;DHT22;21385;50.878;8.050;2024-01-30T03:51:04;3.20;99.90
35258;DHT22;21385;50.878;8.050;2024-01-30T03:53:29;3.10;99.90
35258;DHT22;21385;50.878;8.050;2024-01-30T03:55:55;3.10;99.90
35258;DHT22;21385;50.878;8.050;2024-01-30T03:58:21;3.00;99.90
35258;DHT22;21385;50.878;8.050;2024-01-30T04:00:47;3.00;99.90
35258;DHT22;21385;50.878;8.050;2024-01-30T04:03:14;3.00;99.90
35258;DHT22;21385;50.878;8.050;2024-01-30T04:05:40;3.00;99.90
35258;DHT22;21385;50.878;8.050;2024-01-30T04:08:07;3.00;99.90
35258;DHT22;21385;50.878;8.050;2024-01-30T04:10:33;3.10;99.90
35258;DHT22;21385;50.878;8.050;2024-01-30T04:12:58;3.00;99.90
35258;DHT22;21385;50.878;8.050;2024-01-30T04:15:25;3.00;99.90
35258;DHT22;21385;50.878;8.050;2024-01-30T04:17:50;3.00;99.90
35258;DHT22;21385;50.878;8.050;2024-01-30T04:20:16;3.00;99.90
35258;DHT22;21385;50.878;8.050;2024-01-30T04:22:46;3.00;99.90
35258;DHT22;21385;50.878;8.050;2024-01-30T04:25:14;3.00;99.90
35258;DHT22;21385;50.878;8.050;2024-01-30T04:27:40;2.90;99.90
35258;DHT22;21385;50.878;8.050;2024-01-30T04:30:06;3.00;99.90
35258;DHT22;21385;50.878;8.050;2024-01-30T04:32:32;2.90;99.90
35258;DHT22;21385;50.878;8.050;2024-01-30T04:34:58;2.80;99.90
35258;DHT22;21385;50.878;8.050;2024-01-30T04:37:23;2.80;99.90
35258;DHT22;21385;50.878;8.050;2024-01-30T04:39:50;2.80;99.90
35258;DHT22;21385;50.878;8.050;2024-01-30T04:42:16;2.80;99.90
35258;DHT22;21385;50.878;8.050;2024-01-30T04:44:41;2.80;99.90
35258;DHT22;21385;50.878;8.050;2024-01-30T04:47:07;2.80;99.90
35258;DHT22;21385;50.878;8.050;2024-01-30T04:49:34;2.80;99.90
35258;DHT22;21385;50.878;8.050;2024-01-30T04:52:00;2.80;99.90
35258;DHT22;21385;50.878;8.050;2024-01-30T04:54:26;2.70;99.90
35258;DHT22;21385;50.878;8.050;2024-01-30T04:56:51;2.70;99.90
35258;DHT22;21385;50.878;8.050;2024-01-30T04:59:17;2.70;99.90
35258;DHT22;21385;50.878;8.050;2024-01-30T05:01:42;2.70;99.90
35258;DHT22;21385;50.878;8.050;2024-01-30T05:04:09;2.70;99.90
35258;DHT22;21385;50.878;8.050;2024-01-30T05:06:34;2.70;99.90
35258;DHT22;21385;50.878;8.050;2024-01-30T05:09:00;2.70;99.90
35258;DHT22;21385;50.878;8.050;2024-01-30T05:11:26;2.60;99.90
35258;DHT22;21385;50.878;8.050;2024-01-30T05:13:51;2.60;99.90
35258;DHT22;21385;50.878;8.050;2024-01-30T05:16:17;2.60;99.90
35258;DHT22;21385;50.878;8.050;2024-01-30T05:18:43;2.70;99.90
35258;DHT22;21385;50.878;8.050;2024-01-30T05:21:09;2.70;99.90
35258;DHT22;21385;50.878;8.050;2024-01-30T05:23:35;2.70;99.90
35258;DHT22;21385;50.878;8.050;2024-01-30T05:26:01;2.70;99.90
35258;DHT22;21385;50.878;8.050;2024-01-30T05:28:29;2.70;99.90
35258;DHT22;21385;50.878;8.050;2024-01-30T05:30:54;2.70;99.90
35258;DHT22;21385;50.878;8.050;2024-01-30T05:33:20;2.70;99.90
35258;DHT22;21385;50.878;8.050;2024-01-30T05:35:46;2.60;99.90
35258;DHT22;21385;50.878;8.050;2024-01-30T05:38:11;2.60;99.90
35258;DHT22;21385;50.878;8.050;2024-01-30T05:40:38;2.60;99.90
35258;DHT22;21385;50.878;8.050;2024-01-30T05:43:03;2.60;99.90
35258;DHT22;21385;50.878;8.050;2024-01-30T05:45:29;2.60;99.90
35258;DHT22;21385;50.878;8.050;2024-01-30T05:47:54;2.60;99.90
35258;DHT22;21385;50.878;8.050;2024-01-30T05:50:20;2.60;99.90
35258;DHT22;21385;50.878;8.050;2024-01-30T05:52:48;5.00;99.90
35258;DHT22;21385;50.878;8.050;2024-01-30T05:55:14;5.30;99.90
35258;DHT22;21385;50.878;8.050;2024-01-30T05:57:39;5.00;99.90
35258;DHT22;21385;50.878;8.050;2024-01-30T06:00:06;4.50;99.90
35258;DHT22;21385;50.878;8.050;2024-01-30T06:02:31;4.10;99.90
35258;DHT22;21385;50.878;8.050;2024-01-30T06:04:57;3.70;99.90
35258;DHT22;21385;50.878;8.050;2024-01-30T06:07:23;3.50;99.90
35258;DHT22;21385;50.878;8.050;2024-01-30T06:09:49;3.20;99.90
35258;DHT22;21385;50.878;8.050;2024-01-30T06:12:14;3.10;99.90
35258;DHT22;21385;50.878;8.050;2024-01-30T06:14:40;3.00;99.90
35258;DHT22;21385;50.878;8.050;2024-01-30T06:17:08;2.90;99.90
35258;DHT22;21385;50.878;8.050;2024-01-30T06:19:33;2.80;99.90
35258;DHT22;21385;50.878;8.050;2024-01-30T06:21:59;2.70;99.90
35258;DHT22;21385;50.878;8.050;2024-01-30T06:24:25;2.70;99.90
35258;DHT22;21385;50.878;8.050;2024-01-30T06:26:51;2.60;99.90
35258;DHT22;21385;50.878;8.050;2024-01-30T06:29:16;2.50;99.90
35258;DHT22;21385;50.878;8.050;2024-01-30T06:31:42;2.40;99.90
35258;DHT22;21385;50.878;8.050;2024-01-30T06:34:11;2.40;99.90
35258;DHT22;21385;50.878;8.050;2024-01-30T06:36:37;2.30;99.90
35258;DHT22;21385;50.878;8.050;2024-01-30T06:39:03;2.30;99.90
35258;DHT22;21385;50.878;8.050;2024-01-30T06:41:29;2.20;99.90
35258;DHT22;21385;50.878;8.050;2024-01-30T06:43:55;2.20;99.90
35258;DHT22;21385;50.878;8.050;2024-01-30T06:46:21;2.20;99.90
35258;DHT22;21385;50.878;8.050;2024-01-30T06:48:47;2.20;99.90
35258;DHT22;21385;50.878;8.050;2024-01-30T06:51:12;3.60;99.90
35258;DHT22;21385;50.878;8.050;2024-01-30T06:53:38;3.80;99.90
35258;DHT22;21385;50.878;8.050;2024-01-30T06:56:04;3.60;99.90
35258;DHT22;21385;50.878;8.050;2024-01-30T06:58:29;3.40;99.90
35258;DHT22;21385;50.878;8.050;2024-01-30T07:00:56;3.20;99.90
35258;DHT22;21385;50.878;8.050;2024-01-30T07:03:21;3.00;99.90
35258;DHT22;21385;50.878;8.050;2024-01-30T07:05:47;3.10;99.90
35258;DHT22;21385;50.878;8.050;2024-01-30T07:08:13;3.00;99.90
35258;DHT22;21385;50.878;8.050;2024-01-30T07:10:38;2.90;99.90
35258;DHT22;21385;50.878;8.050;2024-01-30T07:13:04;2.90;99.90
35258;DHT22;21385;50.878;8.050;2024-01-30T07:15:31;5.30;99.90
35258;DHT22;21385;50.878;8.050;2024-01-30T07:17:56;5.70;99.90
35258;DHT22;21385;50.878;8.050;2024-01-30T07:20:22;5.40;99.90
35258;DHT22;21385;50.878;8.050;2024-01-30T07:22:48;5.00;99.90
35258;DHT22;21385;50.878;8.050;2024-01-30T07:25:13;4.50;99.90
35258;DHT22;21385;50.878;8.050;2024-01-30T07:27:39;4.20;99.90
35258;DHT22;21385;50.878;8.050;2024-01-30T07:30:05;3.80;99.90
35258;DHT22;21385;50.878;8.050;2024-01-30T07:32:31;3.60;99.90
35258;DHT22;21385;50.878;8.050;2024-01-30T07:34:57;3.40;99.90
35258;DHT22;21385;50.878;8.050;2024-01-30T07:37:22;3.20;99.90
35258;DHT22;21385;50.878;8.050;2024-01-30T07:39:48;3.10;99.90
35258;DHT22;21385;50.878;8.050;2024-01-30T07:42:14;3.00;99.90
35258;DHT22;21385;50.878;8.050;2024-01-30T07:44:39;2.90;99.90
35258;DHT22;21385;50.878;8.050;2024-01-30T07:47:05;2.90;99.90
35258;DHT22;21385;50.878;8.050;2024-01-30T07:49:30;2.70;99.90
35258;DHT22;21385;50.878;8.050;2024-01-30T07:51:56;2.70;99.90
35258;DHT22;21385;50.878;8.050;2024-01-30T07:54:22;2.70;99.90
35258;DHT22;21385;50.878;8.050;2024-01-30T07:56:48;3.50;99.90
35258;DHT22;21385;50.878;8.050;2024-01-30T07:59:14;4.50;99.90
35258;DHT22;21385;50.878;8.050;2024-01-30T08:01:40;4.50;99.90
35258;DHT22;21385;50.878;8.050;2024-01-30T08:04:05;4.30;99.90
35258;DHT22;21385;50.878;8.050;2024-01-30T08:06:31;4.10;99.90
35258;DHT22;21385;50.878;8.050;2024-01-30T08:08:57;4.00;99.90
35258;DHT22;21385;50.878;8.050;2024-01-30T08:11:24;3.80;99.90
35258;DHT22;21385;50.878;8.050;2024-01-30T08:13:55;4.30;99.90
35258;DHT22;21385;50.878;8.050;2024-01-30T08:16:20;4.50;99.90
35258;DHT22;21385;50.878;8.050;2024-01-30T08:18:46;4.50;99.90
35258;DHT22;21385;50.878;8.050;2024-01-30T08:21:12;4.40;99.90
35258;DHT22;21385;50.878;8.050;2024-01-30T08:23:40;4.20;99.90
35258;DHT22;21385;50.878;8.050;2024-01-30T08:26:06;4.10;99.90
35258;DHT22;21385;50.878;8.050;2024-01-30T08:28:32;4.10;99.90
35258;DHT22;21385;50.878;8.050;2024-01-30T08:30:57;4.00;99.90
35258;DHT22;21385;50.878;8.050;2024-01-30T08:33:23;4.00;99.90
35258;DHT22;21385;50.878;8.050;2024-01-30T08:35:49;4.00;99.90
35258;DHT22;21385;50.878;8.050;2024-01-30T08:38:15;4.00;99.90
35258;DHT22;21385;50.878;8.050;2024-01-30T08:40:40;3.90;99.90
35258;DHT22;21385;50.878;8.050;2024-01-30T08:43:06;3.90;99.90
35258;DHT22;21385;50.878;8.050;2024-01-30T08:45:31;3.90;99.90
35258;DHT22;21385;50.878;8.050;2024-01-30T08:47:57;4.00;99.90
35258;DHT22;21385;50.878;8.050;2024-01-30T08:50:22;4.00;99.90
35258;DHT22;21385;50.878;8.050;2024-01-30T08:52:48;4.00;99.90
35258;DHT22;21385;50.878;8.050;2024-01-30T08:55:14;4.00;99.90
35258;DHT22;21385;50.878;8.050;2024-01-30T08:57:39;4.10;99.90
35258;DHT22;21385;50.878;8.050;2024-01-30T09:00:05;4.10;99.90
35258;DHT22;21385;50.878;8.050;2024-01-30T09:02:34;4.10;99.90
35258;DHT22;21385;50.878;8.050;2024-01-30T09:05:00;4.10;99.90
35258;DHT22;21385;50.878;8.050;2024-01-30T09:07:25;4.10;99.90
35258;DHT22;21385;50.878;8.050;2024-01-30T09:09:51;4.20;99.90
35258;DHT22;21385;50.878;8.050;2024-01-30T09:12:17;4.20;99.90
35258;DHT22;21385;50.878;8.050;2024-01-30T09:14:42;4.30;99.90
35258;DHT22;21385;50.878;8.050;2024-01-30T09:17:08;4.30;99.90
35258;DHT22;21385;50.878;8.050;2024-01-30T09:19:34;4.40;99.90
35258;DHT22;21385;50.878;8.050;2024-01-30T09:21:59;4.50;99.90
35258;DHT22;21385;50.878;8.050;2024-01-30T09:24:26;4.50;99.90
35258;DHT22;21385;50.878;8.050;2024-01-30T09:26:52;4.50;99.90
35258;DHT22;21385;50.878;8.050;2024-01-30T09:29:18;4.60;99.90
35258;DHT22;21385;50.878;8.050;2024-01-30T09:31:46;4.60;99.90
35258;DHT22;21385;50.878;8.050;2024-01-30T09:34:12;4.60;99.90
35258;DHT22;21385;50.878;8.050;2024-01-30T09:36:39;4.70;99.90
35258;DHT22;21385;50.878;8.050;2024-01-30T09:39:04;4.70;99.90
35258;DHT22;21385;50.878;8.050;2024-01-30T09:41:33;4.70;99.90
35258;DHT22;21385;50.878;8.050;2024-01-30T09:44:01;4.80;99.90
35258;DHT22;21385;50.878;8.050;2024-01-30T09:46:28;4.80;99.90
35258;DHT22;21385;50.878;8.050;2024-01-30T09:48:57;4.90;99.90
35258;DHT22;21385;50.878;8.050;2024-01-30T09:51:24;4.90;99.90
35258;DHT22;21385;50.878;8.050;2024-01-30T09:53:50;5.00;99.90
35258;DHT22;21385;50.878;8.050;2024-01-30T09:56:16;5.00;99.90
35258;DHT22;21385;50.878;8.050;2024-01-30T09:58:42;5.10;99.90
35258;DHT22;21385;50.878;8.050;2024-01-30T10:01:08;5.10;99.90
35258;DHT22;21385;50.878;8.050;2024-01-30T10:03:33;5.00;99.90
35258;DHT22;21385;50.878;8.050;2024-01-30T10:05:59;5.00;99.90
35258;DHT22;21385;50.878;8.050;2024-01-30T10:08:26;5.00;99.90
35258;DHT22;21385;50.878;8.050;2024-01-30T10:10:52;5.10;99.90
35258;DHT22;21385;50.878;8.050;2024-01-30T10:13:18;5.20;99.90
35258;DHT22;21385;50.878;8.050;2024-01-30T10:15:44;5.20;99.90
35258;DHT22;21385;50.878;8.050;2024-01-30T10:18:10;5.20;99.90
35258;DHT22;21385;50.878;8.050;2024-01-30T10:20:36;5.30;99.90
35258;DHT22;21385;50.878;8.050;2024-01-30T10:23:02;5.30;99.90
35258;DHT22;21385;50.878;8.050;2024-01-30T10:25:30;5.30;99.90
35258;DHT22;21385;50.878;8.050;2024-01-30T10:27:56;5.50;99.90
35258;DHT22;21385;50.878;8.050;2024-01-30T10:30:23;5.60;99.90
35258;DHT22;21385;50.878;8.050;2024-01-30T10:32:49;5.70;99.90
35258;DHT22;21385;50.878;8.050;2024-01-30T10:35:15;5.80;99.90
35258;DHT22;21385;50.878;8.050;2024-01-30T10:37:43;5.90;99.90
35258;DHT22;21385;50.878;8.050;2024-01-30T10:40:13;6.00;99.90
35258;DHT22;21385;50.878;8.050;2024-01-30T10:42:43;6.10;99.90
35258;DHT22;21385;50.878;8.050;2024-01-30T10:45:10;6.20;99.90
35258;DHT22;21385;50.878;8.050;2024-01-30T10:47:40;6.30;99.90
35258;DHT22;21385;50.878;8.050;2024-01-30T10:50:07;6.30;99.90
35258;DHT22;21385;50.878;8.050;2024-01-30T10:52:34;6.40;99.90
35258;DHT22;21385;50.878;8.050;2024-01-30T10:55:00;6.50;99.90
35258;DHT22;21385;50.878;8.050;2024-01-30T10:57:26;6.60;99.90
35258;DHT22;21385;50.878;8.050;2024-01-30T10:59:56;6.70;99.90
35258;DHT22;21385;50.878;8.050;2024-01-30T11:02:23;6.70;99.90
35258;DHT22;21385;50.878;8.050;2024-01-30T11:04:49;6.80;99.90
35258;DHT22;21385;50.878;8.050;2024-01-30T11:07:23;6.80;99.90
35258;DHT22;21385;50.878;8.050;2024-01-30T11:12:26;6.90;99.90
35258;DHT22;21385;50.878;8.050;2024-01-30T11:15:06;6.90;99.90
35258;DHT22;21385;50.878;8.050;2024-01-30T11:22:48;7.00;99.90
35258;DHT22;21385;50.878;8.050;2024-01-30T11:25:15;7.10;99.90
35258;DHT22;21385;50.878;8.050;2024-01-30T11:27:45;7.10;99.90
35258;DHT22;21385;50.878;8.050;2024-01-30T11:30:20;7.20;99.90
35258;DHT22;21385;50.878;8.050;2024-01-30T11:32:57;7.30;99.90
35258;DHT22;21385;50.878;8.050;2024-01-30T11:35:24;7.30;99.90
35258;DHT22;21385;50.878;8.050;2024-01-30T11:37:50;7.30;99.90
35258;DHT22;21385;50.878;8.050;2024-01-30T11:40:16;7.50;99.90
35258;DHT22;21385;50.878;8.050;2024-01-30T11:42:42;7.60;99.90
35258;DHT22;21385;50.878;8.050;2024-01-30T11:45:09;7.60;99.90
35258;DHT22;21385;50.878;8.050;2024-01-30T11:47:36;7.60;99.90
35258;DHT22;21385;50.878;8.050;2024-01-30T11:50:04;7.80;99.90
35258;DHT22;21385;50.878;8.050;2024-01-30T11:52:33;7.90;99.90
35258;DHT22;21385;50.878;8.050;2024-01-30T11:54:59;8.00;99.90
35258;DHT22;21385;50.878;8.050;2024-01-30T11:57:27;8.20;99.90
35258;DHT22;21385;50.878;8.050;2024-01-30T11:59:52;8.40;99.90
35258;DHT22;21385;50.878;8.050;2024-01-30T12:02:18;8.60;99.90
35258;DHT22;21385;50.878;8.050;2024-01-30T12:04:44;8.80;99.90
35258;DHT22;21385;50.878;8.050;2024-01-30T12:07:10;9.10;99.90
35258;DHT22;21385;50.878;8.050;2024-01-30T12:09:36;9.20;99.90
35258;DHT22;21385;50.878;8.050;2024-01-30T12:12:02;9.40;99.90
35258;DHT22;21385;50.878;8.050;2024-01-30T12:14:27;9.50;99.90
35258;DHT22;21385;50.878;8.050;2024-01-30T12:16:53;9.60;99.90
35258;DHT22;21385;50.878;8.050;2024-01-30T12:19:25;9.70;99.90
35258;DHT22;21385;50.878;8.050;2024-01-30T12:21:55;9.80;99.90
35258;DHT22;21385;50.878;8.050;2024-01-30T12:24:21;9.80;99.90
35258;DHT22;21385;50.878;8.050;2024-01-30T12:26:47;9.80;99.90
35258;DHT22;21385;50.878;8.050;2024-01-30T12:29:14;9.90;99.90
35258;DHT22;21385;50.878;8.050;2024-01-30T12:31:42;10.00;99.90
35258;DHT22;21385;50.878;8.050;2024-01-30T12:34:08;10.10;99.90
35258;DHT22;21385;50.878;8.050;2024-01-30T12:36:34;10.20;99.90
35258;DHT22;21385;50.878;8.050;2024-01-30T12:39:00;10.20;99.90
35258;DHT22;21385;50.878;8.050;2024-01-30T12:41:26;10.20;99.90
35258;DHT22;21385;50.878;8.050;2024-01-30T12:43:54;10.20;99.90
35258;DHT22;21385;50.878;8.050;2024-01-30T12:46:20;10.10;99.90
35258;DHT22;21385;50.878;8.050;2024-01-30T12:48:45;10.20;99.90
35258;DHT22;21385;50.878;8.050;2024-01-30T12:51:11;10.30;99.90
35258;DHT22;21385;50.878;8.050;2024-01-30T12:53:37;10.30;99.90
35258;DHT22;21385;50.878;8.050;2024-01-30T12:56:02;10.40;99.90
35258;DHT22;21385;50.878;8.050;2024-01-30T12:58:28;10.40;99.90
35258;DHT22;21385;50.878;8.050;2024-01-30T13:00:54;10.50;99.90
35258;DHT22;21385;50.878;8.050;2024-01-30T13:03:20;10.40;99.90
35258;DHT22;21385;50.878;8.050;2024-01-30T13:05:45;10.40;99.90
35258;DHT22;21385;50.878;8.050;2024-01-30T13:08:11;10.40;99.90
35258;DHT22;21385;50.878;8.050;2024-01-30T13:10:36;10.40;99.90
35258;DHT22;21385;50.878;8.050;2024-01-30T13:13:02;10.40;99.90
35258;DHT22;21385;50.878;8.050;2024-01-30T13:15:28;10.50;99.90
35258;DHT22;21385;50.878;8.050;2024-01-30T13:17:53;10.60;99.90
35258;DHT22;21385;50.878;8.050;2024-01-30T13:20:19;10.80;99.90
35258;DHT22;21385;50.878;8.050;2024-01-30T13:22:47;10.90;99.90
35258;DHT22;21385;50.878;8.050;2024-01-30T13:25:15;11.00;99.90
35258;DHT22;21385;50.878;8.050;2024-01-30T13:27:41;11.10;99.90
35258;DHT22;21385;50.878;8.050;2024-01-30T13:30:07;11.10;99.90
35258;DHT22;21385;50.878;8.050;2024-01-30T13:32:34;11.20;99.90
35258;DHT22;21385;50.878;8.050;2024-01-30T13:35:00;11.30;99.90
35258;DHT22;21385;50.878;8.050;2024-01-30T13:37:25;11.30;99.90
35258;DHT22;21385;50.878;8.050;2024-01-30T13:39:51;11.40;99.90
35258;DHT22;21385;50.878;8.050;2024-01-30T13:42:17;11.30;99.90
35258;DHT22;21385;50.878;8.050;2024-01-30T13:44:42;11.40;99.90
35258;DHT22;21385;50.878;8.050;2024-01-30T13:47:09;11.40;99.90
35258;DHT22;21385;50.878;8.050;2024-01-30T13:49:35;11.40;99.90
35258;DHT22;21385;50.878;8.050;2024-01-30T13:52:00;11.50;99.90
35258;DHT22;21385;50.878;8.050;2024-01-30T13:54:26;11.50;99.90
35258;DHT22;21385;50.878;8.050;2024-01-30T13:56:51;11.60;99.90
35258;DHT22;21385;50.878;8.050;2024-01-30T13:59:17;11.70;99.90
35258;DHT22;21385;50.878;8.050;2024-01-30T14:01:48;11.80;99.90
35258;DHT22;21385;50.878;8.050;2024-01-30T14:04:14;11.80;99.90
35258;DHT22;21385;50.878;8.050;2024-01-30T14:06:40;11.90;99.90
35258;DHT22;21385;50.878;8.050;2024-01-30T14:09:06;11.90;99.90
35258;DHT22;21385;50.878;8.050;2024-01-30T14:11:31;11.90;99.90
35258;DHT22;21385;50.878;8.050;2024-01-30T14:13:57;11.80;99.90
35258;DHT22;21385;50.878;8.050;2024-01-30T14:16:23;11.80;99.90
35258;DHT22;21385;50.878;8.050;2024-01-30T14:18:49;11.80;99.90
35258;DHT22;21385;50.878;8.050;2024-01-30T14:21:15;11.70;99.90
35258;DHT22;21385;50.878;8.050;2024-01-30T14:23:41;11.70;99.90
35258;DHT22;21385;50.878;8.050;2024-01-30T14:26:06;11.70;99.90
35258;DHT22;21385;50.878;8.050;2024-01-30T14:28:32;11.60;99.90
35258;DHT22;21385;50.878;8.050;2024-01-30T14:30:57;11.60;99.90
35258;DHT22;21385;50.878;8.050;2024-01-30T14:33:23;11.60;99.90
35258;DHT22;21385;50.878;8.050;2024-01-30T14:35:48;11.60;99.90
35258;DHT22;21385;50.878;8.050;2024-01-30T14:38:14;11.60;99.90
35258;DHT22;21385;50.878;8.050;2024-01-30T14:40:41;11.60;99.90
35258;DHT22;21385;50.878;8.050;2024-01-30T14:43:06;11.60;99.90
35258;DHT22;21385;50.878;8.050;2024-01-30T14:45:32;11.60;99.90
35258;DHT22;21385;50.878;8.050;2024-01-30T14:47:58;11.60;99.90
35258;DHT22;21385;50.878;8.050;2024-01-30T14:50:25;11.60;99.90
35258;DHT22;21385;50.878;8.050;2024-01-30T14:52:51;11.60;99.90
35258;DHT22;21385;50.878;8.050;2024-01-30T14:55:17;11.60;99.90
35258;DHT22;21385;50.878;8.050;2024-01-30T14:57:44;11.70;99.90
35258;DHT22;21385;50.878;8.050;2024-01-30T15:00:11;11.70;99.90
35258;DHT22;21385;50.878;8.050;2024-01-30T15:02:37;11.70;99.90
35258;DHT22;21385;50.878;8.050;2024-01-30T15:05:03;11.70;99.90
35258;DHT22;21385;50.878;8.050;2024-01-30T15:07:29;11.70;99.90
35258;DHT22;21385;50.878;8.050;2024-01-30T15:09:55;11.70;99.90
35258;DHT22;21385;50.878;8.050;2024-01-30T15:12:20;11.70;99.90
35258;DHT22;21385;50.878;8.050;2024-01-30T15:14:46;11.60;99.90
35258;DHT22;21385;50.878;8.050;2024-01-30T15:17:18;11.60;99.90
35258;DHT22;21385;50.878;8.050;2024-01-30T15:19:44;11.60;99.90
35258;DHT22;21385;50.878;8.050;2024-01-30T15:22:10;11.60;99.90
35258;DHT22;21385;50.878;8.050;2024-01-30T15:24:35;11.60;99.90
35258;DHT22;21385;50.878;8.050;2024-01-30T15:27:01;11.60;99.90
35258;DHT22;21385;50.878;8.050;2024-01-30T15:29:26;11.60;99.90
35258;DHT22;21385;50.878;8.050;2024-01-30T15:31:52;11.60;99.90
35258;DHT22;21385;50.878;8.050;2024-01-30T15:34:18;11.60;99.90
35258;DHT22;21385;50.878;8.050;2024-01-30T15:36:43;11.60;99.90
35258;DHT22;21385;50.878;8.050;2024-01-30T15:39:09;11.60;99.90
35258;DHT22;21385;50.878;8.050;2024-01-30T15:41:36;11.60;99.90
35258;DHT22;21385;50.878;8.050;2024-01-30T15:44:02;11.50;99.90